Time;durP1;ratioP1;P1;durP2;ratioP2;P2;SDS_P1;SDS_P2;PMS_P1;PMS_P2;Temp;Humidity;BMP_temperature;BMP_pressure;BME280_temperature;BME280_humidity;BME280_pressure;Samples;Min_cycle;Max_cycle;Signal;HPM_P1;HPM_P2
2023/10/09 00:03:42;;;;;;;21.83;13.43;;;;;;;;;;12980473;22;20473;-85
2023/10/09 00:08:49;;;;;;;22.42;13.90;;;;;;;;;;12979570;22;20430;-85
2023/10/09 00:13:57;;;;;;;25.90;13.32;;;;;;;;;;12979763;22;20672;-86
2023/10/09 00:19:13;;;;;;;23.23;13.25;;;;;;;;;;12978707;22;20370;-85
2023/10/09 00:24:23;;;;;;;20.67;13.15;;;;;;;;;;12978966;22;20428;-86
2023/10/09 00:29:34;;;;;;;22.85;13.73;;;;;;;;;;12978427;22;20424;-85
2023/10/09 00:34:40;;;;;;;21.42;13.35;;;;;;;;;;12979165;22;20438;-85
2023/10/09 00:39:43;;;;;;;25.90;14.45;;;;;;;;;;13000012;22;20354;-85
2023/10/09 00:44:48;;;;;;;24.15;14.75;;;;;;;;;;12986256;22;20425;-85
2023/10/09 00:49:59;;;;;;;27.55;15.07;;;;;;;;;;12978219;22;20359;-85
2023/10/09 00:55:04;;;;;;;23.48;14.20;;;;;;;;;;12977292;22;20382;-84
2023/10/09 01:00:23;;;;;;;25.40;14.48;;;;;;;;;;12977926;22;20432;-85
2023/10/09 01:05:28;;;;;;;24.65;14.55;;;;;;;;;;12975247;22;20424;-85
2023/10/09 01:10:50;;;;;;;24.02;15.00;;;;;;;;;;12972671;22;20375;-85
2023/10/09 01:15:54;;;;;;;29.00;15.97;;;;;;;;;;12976705;22;20382;-85
2023/10/09 01:20:57;;;;;;;24.92;14.52;;;;;;;;;;12976011;22;20366;-85
2023/10/09 01:26:01;;;;;;;22.95;14.55;;;;;;;;;;12977238;22;20773;-85
2023/10/09 01:31:05;;;;;;;24.83;15.43;;;;;;;;;;12977571;22;20432;-85
2023/10/09 01:36:09;;;;;;;25.75;15.60;;;;;;;;;;12977556;22;20405;-85
2023/10/09 01:41:19;;;;;;;27.90;15.03;;;;;;;;;;12977640;22;21010;-85
2023/10/09 01:46:22;;;;;;;24.13;14.70;;;;;;;;;;12983414;22;20409;-85
2023/10/09 01:51:25;;;;;;;27.48;14.98;;;;;;;;;;12976711;22;20358;-85
2023/10/09 01:56:28;;;;;;;27.80;14.75;;;;;;;;;;12977431;22;20366;-85
2023/10/09 02:01:32;;;;;;;25.70;15.07;;;;;;;;;;12976950;22;20370;-85
2023/10/09 02:06:37;;;;;;;28.90;15.07;;;;;;;;;;12997160;22;20888;-85
2023/10/09 02:11:41;;;;;;;25.90;15.02;;;;;;;;;;12977561;22;20405;-85
2023/10/09 02:16:43;;;;;;;27.60;14.80;;;;;;;;;;12975622;22;20464;-85
2023/10/09 02:21:46;;;;;;;26.13;14.95;;;;;;;;;;12999337;22;20363;-85
2023/10/09 02:32:16;;;;;;;27.70;15.07;;;;;;;;;;13001229;22;20382;-85
2023/10/09 02:37:23;;;;;;;29.13;15.40;;;;;;;;;;13002416;22;20359;-85
2023/10/09 02:42:28;;;;;;;27.42;15.25;;;;;;;;;;12982095;22;20393;-85
2023/10/09 02:47:31;;;;;;;26.73;14.83;;;;;;;;;;12985237;22;20366;-85
2023/10/09 02:52:40;;;;;;;27.33;15.40;;;;;;;;;;12981738;22;20378;-85
2023/10/09 02:57:45;;;;;;;27.17;14.63;;;;;;;;;;12979787;22;20363;-84
2023/10/09 03:02:49;;;;;;;33.10;18.00;;;;;;;;;;12979840;22;20397;-85
2023/10/09 03:07:53;;;;;;;32.33;17.42;;;;;;;;;;12979324;22;20374;-85
2023/10/09 03:12:59;;;;;;;31.25;17.52;;;;;;;;;;12979330;22;20764;-85
2023/10/09 03:18:04;;;;;;;33.45;17.63;;;;;;;;;;12980085;22;20899;-85
2023/10/09 03:23:09;;;;;;;31.33;18.08;;;;;;;;;;12980465;22;20428;-85
2023/10/09 03:28:15;;;;;;;31.13;17.42;;;;;;;;;;12980008;22;20362;-85
2023/10/09 03:33:18;;;;;;;32.27;18.20;;;;;;;;;;12980096;22;20498;-85
2023/10/09 03:38:21;;;;;;;31.83;17.55;;;;;;;;;;12979534;22;20401;-84
2023/10/09 03:43:24;;;;;;;31.65;17.77;;;;;;;;;;12988567;22;20378;-85
2023/10/09 03:48:31;;;;;;;31.02;18.45;;;;;;;;;;12979079;22;20420;-85
2023/10/09 03:53:36;;;;;;;35.23;19.10;;;;;;;;;;12978618;22;20460;-85
2023/10/09 03:58:42;;;;;;;32.65;18.70;;;;;;;;;;12979492;22;20737;-84
2023/10/09 04:03:45;;;;;;;32.78;18.13;;;;;;;;;;13042319;22;20410;-85
2023/10/09 04:08:48;;;;;;;36.63;19.63;;;;;;;;;;13043734;22;20395;-85
2023/10/09 04:13:53;;;;;;;37.57;20.47;;;;;;;;;;13042300;22;20381;-84
2023/10/09 04:18:57;;;;;;;44.22;22.55;;;;;;;;;;13042060;22;20369;-85
2023/10/09 04:29:26;;;;;;;44.75;24.08;;;;;;;;;;13023532;22;20840;-85
2023/10/09 04:34:34;;;;;;;40.88;23.00;;;;;;;;;;13041541;22;20385;-86
2023/10/09 04:39:46;;;;;;;41.97;23.13;;;;;;;;;;13041814;22;20361;-84
2023/10/09 04:45:25;;;;;;;42.90;22.73;;;;;;;;;;13068793;22;20418;-84
2023/10/09 04:51:10;;;;;;;41.60;22.05;;;;;;;;;;13038735;22;20361;-84
2023/10/09 04:56:15;;;;;;;40.10;22.40;;;;;;;;;;13040501;22;20381;-82
2023/10/09 05:01:35;;;;;;;37.30;21.47;;;;;;;;;;13006858;22;20375;-86
2023/10/09 05:06:54;;;;;;;38.30;19.90;;;;;;;;;;12974430;22;20421;-86
2023/10/09 05:12:09;;;;;;;34.42;18.67;;;;;;;;;;12973603;22;20408;-85
2023/10/09 05:17:16;;;;;;;31.17;17.60;;;;;;;;;;12975249;22;20363;-87
2023/10/09 05:22:36;;;;;;;34.47;18.00;;;;;;;;;;13000167;22;20367;-89
2023/10/09 05:27:50;;;;;;;30.70;17.23;;;;;;;;;;12978787;22;20428;-89
2023/10/09 05:33:27;;;;;;;27.70;16.50;;;;;;;;;;12978732;22;20447;-89
2023/10/09 05:38:24;;;;;;;33.00;16.02;;;;;;;;;;12975264;22;20420;-87
2023/10/09 05:48:54;;;;;;;27.38;15.13;;;;;;;;;;12949079;22;20862;-89
2023/10/09 05:54:11;;;;;;;26.67;14.90;;;;;;;;;;12979565;22;20459;-90
2023/10/09 06:04:49;;;;;;;27.00;15.23;;;;;;;;;;13002224;22;20362;-90
2023/10/09 06:09:52;;;;;;;25.60;14.10;;;;;;;;;;12979736;22;20439;-89
2023/10/09 06:15:18;;;;;;;24.65;14.48;;;;;;;;;;12980898;22;20459;-89
2023/10/09 06:25:51;;;;;;;29.42;15.40;;;;;;;;;;12971801;22;20397;-89
2023/10/09 06:30:53;;;;;;;30.35;16.42;;;;;;;;;;13005653;22;20359;-89
2023/10/09 06:36:08;;;;;;;28.07;15.50;;;;;;;;;;12983288;22;20386;-89
2023/10/09 06:41:34;;;;;;;30.30;16.60;;;;;;;;;;12985410;22;20412;-89
2023/10/09 06:46:45;;;;;;;27.17;15.00;;;;;;;;;;12991559;22;20794;-89
2023/10/09 06:52:13;;;;;;;26.53;15.63;;;;;;;;;;12983213;22;20358;-89
2023/10/09 06:57:30;;;;;;;31.35;16.27;;;;;;;;;;12984242;22;20439;-89
2023/10/09 07:02:45;;;;;;;34.23;15.60;;;;;;;;;;12983503;22;20363;-88
2023/10/09 07:08:21;;;;;;;27.40;15.35;;;;;;;;;;12983670;22;20363;-90
2023/10/09 07:13:18;;;;;;;27.40;14.80;;;;;;;;;;12982672;22;20436;-88
2023/10/09 07:18:23;;;;;;;26.83;15.27;;;;;;;;;;12982967;22;20363;-90
2023/10/09 07:23:32;;;;;;;24.65;14.88;;;;;;;;;;12983277;22;20362;-90
2023/10/09 07:28:42;;;;;;;29.23;14.60;;;;;;;;;;12984141;22;20709;-89
2023/10/09 07:33:57;;;;;;;26.00;14.75;;;;;;;;;;12983603;22;20760;-90
2023/10/09 07:39:02;;;;;;;29.70;14.63;;;;;;;;;;12984082;22;20424;-89
2023/10/09 07:44:36;;;;;;;24.25;13.35;;;;;;;;;;13006029;22;20825;-89
2023/10/09 07:49:39;;;;;;;26.37;13.63;;;;;;;;;;12983384;22;20892;-89
2023/10/09 07:54:49;;;;;;;25.10;13.23;;;;;;;;;;13008423;22;20718;-89
2023/10/09 08:00:00;;;;;;;20.13;12.00;;;;;;;;;;13001385;22;20362;-90
2023/10/09 08:05:18;;;;;;;22.47;12.00;;;;;;;;;;12983289;22;20829;-89
2023/10/09 08:15:52;;;;;;;20.60;11.47;;;;;;;;;;13003913;22;20374;-89
2023/10/09 08:26:13;;;;;;;19.90;9.23;;;;;;;;;;12978629;22;20371;-89
2023/10/09 08:31:34;;;;;;;16.20;8.63;;;;;;;;;;13002619;22;20405;-90
2023/10/09 08:36:37;;;;;;;16.88;9.07;;;;;;;;;;12974228;22;20703;-88
2023/10/09 08:41:41;;;;;;;17.08;9.07;;;;;;;;;;12990098;22;20865;-89
2023/10/09 08:46:44;;;;;;;21.58;11.18;;;;;;;;;;12983292;22;20363;-89
2023/10/09 08:51:48;;;;;;;21.97;11.17;;;;;;;;;;12980512;22;20393;-89
2023/10/09 08:56:51;;;;;;;21.08;10.65;;;;;;;;;;12976323;22;20421;-89
2023/10/09 09:01:58;;;;;;;18.25;9.50;;;;;;;;;;12977470;22;20405;-90
2023/10/09 09:07:01;;;;;;;19.50;10.93;;;;;;;;;;12977239;22;20370;-89
2023/10/09 09:12:08;;;;;;;22.27;12.02;;;;;;;;;;12980846;22;20416;-89
2023/10/09 09:17:11;;;;;;;21.43;12.37;;;;;;;;;;12996535;22;20404;-89
2023/10/09 09:22:14;;;;;;;27.23;14.07;;;;;;;;;;12976756;22;20912;-90
2023/10/09 09:27:20;;;;;;;26.50;13.73;;;;;;;;;;12977532;22;20366;-90
2023/10/09 09:32:35;;;;;;;30.73;16.35;;;;;;;;;;12976304;22;20416;-90
2023/10/09 09:37:50;;;;;;;32.53;17.85;;;;;;;;;;12977364;22;20382;-90
2023/10/09 09:43:04;;;;;;;42.50;15.88;;;;;;;;;;12980851;22;20358;-89
2023/10/09 09:48:16;;;;;;;31.97;15.60;;;;;;;;;;13001467;22;20381;-89
2023/10/09 09:53:18;;;;;;;28.92;15.93;;;;;;;;;;12987049;22;21190;-90
2023/10/09 09:58:23;;;;;;;29.27;16.13;;;;;;;;;;13002186;22;20425;-90
2023/10/09 10:03:32;;;;;;;28.67;15.90;;;;;;;;;;12978787;22;20366;-88
2023/10/09 10:08:35;;;;;;;31.38;17.20;;;;;;;;;;13001220;22;20388;-89
2023/10/09 10:14:06;;;;;;;29.38;16.42;;;;;;;;;;12979949;22;20370;-89
2023/10/09 10:19:21;;;;;;;31.13;16.50;;;;;;;;;;12980207;22;20412;-89
2023/10/09 10:24:55;;;;;;;31.08;16.45;;;;;;;;;;12978919;22;20351;-89
2023/10/09 10:30:36;;;;;;;31.83;16.00;;;;;;;;;;12981249;22;20515;-90
2023/10/09 10:35:46;;;;;;;32.40;16.95;;;;;;;;;;12979192;22;20378;-89
2023/10/09 10:40:56;;;;;;;29.67;16.77;;;;;;;;;;12978993;22;20366;-90
2023/10/09 10:46:13;;;;;;;28.67;15.50;;;;;;;;;;12982206;22;20355;-90
2023/10/09 10:51:21;;;;;;;29.33;16.75;;;;;;;;;;12983461;22;20358;-90
2023/10/09 10:56:35;;;;;;;29.90;16.60;;;;;;;;;;12981190;22;20683;-90
2023/10/09 11:01:58;;;;;;;31.10;16.03;;;;;;;;;;13004476;22;20397;-89
2023/10/09 11:07:09;;;;;;;32.97;17.58;;;;;;;;;;12988041;22;20401;-89
2023/10/09 11:12:22;;;;;;;26.25;16.25;;;;;;;;;;13001893;22;20385;-90
2023/10/09 11:17:27;;;;;;;29.33;16.87;;;;;;;;;;12972075;22;20437;-90
2023/10/09 11:22:36;;;;;;;29.55;15.43;;;;;;;;;;12973170;22;20354;-89
2023/10/09 11:27:40;;;;;;;27.77;16.40;;;;;;;;;;12974115;22;20429;-90
2023/10/09 11:32:44;;;;;;;34.78;17.80;;;;;;;;;;12972954;22;20449;-90
2023/10/09 11:37:56;;;;;;;28.60;15.73;;;;;;;;;;12973267;22;20702;-89
2023/10/09 11:43:02;;;;;;;30.17;16.07;;;;;;;;;;12972048;22;20382;-89
2023/10/09 11:48:28;;;;;;;26.37;15.23;;;;;;;;;;12973829;22;20416;-87
2023/10/09 11:53:43;;;;;;;28.03;15.63;;;;;;;;;;12972279;22;20903;-90
2023/10/09 11:58:49;;;;;;;30.48;16.92;;;;;;;;;;12971808;22;20445;-90
2023/10/09 12:03:53;;;;;;;27.27;15.65;;;;;;;;;;12968808;22;20382;-89
2023/10/09 12:08:58;;;;;;;31.17;15.15;;;;;;;;;;12989789;22;21206;-89
2023/10/09 12:14:00;;;;;;;28.45;15.93;;;;;;;;;;12974377;22;20359;-89
2023/10/09 12:19:09;;;;;;;28.70;16.35;;;;;;;;;;12971787;22;20424;-88
2023/10/09 12:24:11;;;;;;;29.75;15.73;;;;;;;;;;12972220;22;20421;-90
2023/10/09 12:29:14;;;;;;;31.60;14.70;;;;;;;;;;12995788;22;20354;-89
2023/10/09 12:34:18;;;;;;;29.48;14.73;;;;;;;;;;12976434;22;20926;-89
2023/10/09 12:39:21;;;;;;;24.52;14.18;;;;;;;;;;12975459;22;20362;-89
2023/10/09 12:44:27;;;;;;;28.40;15.33;;;;;;;;;;12976262;22;20362;-90
2023/10/09 12:49:30;;;;;;;26.80;14.02;;;;;;;;;;12979429;22;20444;-90
2023/10/09 12:54:33;;;;;;;27.73;14.37;;;;;;;;;;12965648;22;20440;-89
2023/10/09 12:59:35;;;;;;;25.00;14.32;;;;;;;;;;12972704;22;20424;-88
2023/10/09 13:04:42;;;;;;;25.48;15.15;;;;;;;;;;12974482;22;20371;-88
2023/10/09 13:09:51;;;;;;;24.37;14.10;;;;;;;;;;12975236;22;20374;-90
2023/10/09 13:14:54;;;;;;;23.35;13.45;;;;;;;;;;12977390;22;20382;-90
2023/10/09 13:19:57;;;;;;;25.17;12.82;;;;;;;;;;12989252;22;20367;-88
2023/10/09 13:25:04;;;;;;;20.67;12.57;;;;;;;;;;12976253;22;20362;-88
2023/10/09 13:30:09;;;;;;;22.27;12.87;;;;;;;;;;12972030;22;20367;-90
2023/10/09 13:35:14;;;;;;;22.17;13.15;;;;;;;;;;12975622;22;20374;-90
2023/10/09 13:40:26;;;;;;;23.08;13.35;;;;;;;;;;12974967;22;20444;-90
2023/10/09 13:45:30;;;;;;;21.00;12.35;;;;;;;;;;12975691;22;20384;-91
2023/10/09 13:50:33;;;;;;;22.70;12.60;;;;;;;;;;12976464;22;20374;-90
2023/10/09 13:55:43;;;;;;;23.13;12.60;;;;;;;;;;12973378;22;20382;-90
2023/10/09 14:00:49;;;;;;;18.67;11.38;;;;;;;;;;12977317;22;20519;-90
2023/10/09 14:05:54;;;;;;;24.43;12.00;;;;;;;;;;12975838;22;20363;-90
2023/10/09 14:10:56;;;;;;;21.40;12.35;;;;;;;;;;12977940;22;20362;-90
2023/10/09 14:16:02;;;;;;;20.10;11.40;;;;;;;;;;12974215;22;20444;-90
2023/10/09 14:21:15;;;;;;;22.13;12.63;;;;;;;;;;12977921;22;20366;-90
2023/10/09 14:26:18;;;;;;;22.10;12.30;;;;;;;;;;12993595;22;20362;-90
2023/10/09 14:31:26;;;;;;;19.25;11.85;;;;;;;;;;12982502;22;20420;-91
2023/10/09 14:36:33;;;;;;;24.35;13.07;;;;;;;;;;12981538;22;20382;-90
2023/10/09 14:41:36;;;;;;;24.27;12.45;;;;;;;;;;12981104;22;20363;-90
2023/10/09 14:46:38;;;;;;;21.98;12.52;;;;;;;;;;12982319;22;20420;-90
2023/10/09 14:51:46;;;;;;;20.73;12.23;;;;;;;;;;13003629;22;20367;-90
2023/10/09 14:56:50;;;;;;;20.02;11.52;;;;;;;;;;12982495;22;20701;-90
2023/10/09 15:01:53;;;;;;;20.60;11.60;;;;;;;;;;12980578;22;20393;-91
2023/10/09 15:06:57;;;;;;;24.55;12.10;;;;;;;;;;12976069;22;20367;-89
2023/10/09 15:11:59;;;;;;;22.00;11.65;;;;;;;;;;12999115;22;20359;-90
2023/10/09 15:17:02;;;;;;;22.42;12.63;;;;;;;;;;12981129;22;20387;-91
2023/10/09 15:22:09;;;;;;;18.43;11.43;;;;;;;;;;12984583;22;20819;-92
2023/10/09 15:27:13;;;;;;;19.75;11.70;;;;;;;;;;12982210;22;20397;-90
2023/10/09 15:32:22;;;;;;;23.75;11.73;;;;;;;;;;12982067;22;20981;-90
2023/10/09 15:37:26;;;;;;;19.90;11.85;;;;;;;;;;12982796;22;20382;-90
2023/10/09 15:42:29;;;;;;;19.30;11.37;;;;;;;;;;12972099;22;20363;-91
2023/10/09 15:47:32;;;;;;;21.55;11.50;;;;;;;;;;12976228;22;20765;-91
2023/10/09 15:52:38;;;;;;;23.40;11.50;;;;;;;;;;12983362;22;20393;-90
2023/10/09 15:57:41;;;;;;;19.33;11.23;;;;;;;;;;12989171;22;20374;-91
2023/10/09 16:02:44;;;;;;;25.03;12.27;;;;;;;;;;12981586;22;20382;-90
2023/10/09 16:07:48;;;;;;;20.77;11.27;;;;;;;;;;12979465;22;20744;-90
2023/10/09 16:12:51;;;;;;;23.30;11.13;;;;;;;;;;12980723;22;20397;-89
2023/10/09 16:17:58;;;;;;;17.75;10.70;;;;;;;;;;12981067;22;20421;-90
2023/10/09 16:23:04;;;;;;;20.73;11.25;;;;;;;;;;12981843;22;20404;-90
2023/10/09 16:28:08;;;;;;;24.20;11.10;;;;;;;;;;12980178;22;20362;-89
2023/10/09 16:33:11;;;;;;;21.25;10.38;;;;;;;;;;12979980;22;21050;-89
2023/10/09 16:38:14;;;;;;;21.87;11.13;;;;;;;;;;12979985;22;20382;-90
2023/10/09 16:43:17;;;;;;;22.27;11.63;;;;;;;;;;12977838;22;20426;-90
2023/10/09 16:48:19;;;;;;;24.93;11.20;;;;;;;;;;12980489;22;20359;-90
2023/10/09 16:53:25;;;;;;;20.67;10.23;;;;;;;;;;12978961;22;20366;-90
2023/10/09 16:58:27;;;;;;;16.60;9.37;;;;;;;;;;12978035;22;20646;-91
2023/10/09 17:03:30;;;;;;;18.30;9.25;;;;;;;;;;12990711;22;20374;-91
2023/10/09 17:08:39;;;;;;;23.08;9.43;;;;;;;;;;12971206;22;20362;-90
2023/10/09 17:13:44;;;;;;;17.67;8.77;;;;;;;;;;12974768;22;20359;-91
2023/10/09 17:18:47;;;;;;;14.35;7.82;;;;;;;;;;12975092;22;20382;-90
2023/10/09 17:23:53;;;;;;;14.57;8.75;;;;;;;;;;12975666;22;20904;-90
2023/10/09 17:28:56;;;;;;;15.73;8.03;;;;;;;;;;12971989;22;20389;-90
2023/10/09 17:34:02;;;;;;;15.55;8.00;;;;;;;;;;12972075;22;20370;-89
2023/10/09 17:39:06;;;;;;;15.75;8.60;;;;;;;;;;12973969;22;20383;-85
2023/10/09 17:44:10;;;;;;;20.75;10.95;;;;;;;;;;12961191;22;20369;-86
2023/10/09 17:49:13;;;;;;;16.77;10.17;;;;;;;;;;12965962;22;20409;-85
2023/10/09 17:54:16;;;;;;;20.55;10.13;;;;;;;;;;12965440;22;20358;-86
2023/10/09 17:59:19;;;;;;;22.90;12.13;;;;;;;;;;12974615;22;20706;-85
2023/10/09 18:04:21;;;;;;;25.38;13.93;;;;;;;;;;12974630;22;20440;-85
2023/10/09 18:09:30;;;;;;;29.90;14.95;;;;;;;;;;12972354;22;20359;-85
2023/10/09 18:14:33;;;;;;;31.67;15.27;;;;;;;;;;12966064;22;20370;-85
2023/10/09 18:19:38;;;;;;;33.45;17.73;;;;;;;;;;12966534;22;20447;-86
2023/10/09 18:24:42;;;;;;;34.00;18.37;;;;;;;;;;12968044;22;20710;-86
2023/10/09 18:29:48;;;;;;;41.93;20.53;;;;;;;;;;12966942;22;20400;-86
2023/10/09 18:34:50;;;;;;;41.55;21.17;;;;;;;;;;12967553;22;20383;-86
2023/10/09 18:39:54;;;;;;;39.33;20.80;;;;;;;;;;12967245;22;20405;-87
2023/10/09 18:44:56;;;;;;;35.27;19.43;;;;;;;;;;12967892;22;20420;-86
2023/10/09 18:49:58;;;;;;;35.78;18.23;;;;;;;;;;12963617;22;20382;-87
2023/10/09 18:55:06;;;;;;;30.02;17.27;;;;;;;;;;12966151;22;20387;-86
2023/10/09 19:00:12;;;;;;;30.53;17.27;;;;;;;;;;12970777;22;20975;-87
2023/10/09 19:05:14;;;;;;;33.50;19.02;;;;;;;;;;12970458;22;20436;-87
2023/10/09 19:10:20;;;;;;;36.28;19.08;;;;;;;;;;12974399;22;20842;-86
2023/10/09 19:15:24;;;;;;;31.50;18.77;;;;;;;;;;12970533;22;20899;-86
2023/10/09 19:20:29;;;;;;;29.98;17.85;;;;;;;;;;12972479;22;20707;-87
2023/10/09 19:25:33;;;;;;;29.80;17.33;;;;;;;;;;12970445;22;20374;-86
2023/10/09 19:30:35;;;;;;;34.07;17.30;;;;;;;;;;12970919;22;20382;-86
2023/10/09 19:35:40;;;;;;;33.35;16.77;;;;;;;;;;12969596;22;20444;-85
2023/10/09 19:40:52;;;;;;;28.52;16.60;;;;;;;;;;12966422;22;20387;-86
2023/10/09 19:46:02;;;;;;;31.00;16.47;;;;;;;;;;12969380;22;20382;-85
2023/10/09 19:51:06;;;;;;;28.00;16.47;;;;;;;;;;12968448;22;20379;-86
2023/10/09 19:56:10;;;;;;;31.87;17.40;;;;;;;;;;12968914;22;20386;-86
2023/10/09 20:01:14;;;;;;;36.90;19.03;;;;;;;;;;12971189;22;20854;-86
2023/10/09 20:06:17;;;;;;;36.17;18.37;;;;;;;;;;12970614;22;20722;-87
2023/10/09 20:11:22;;;;;;;34.10;18.02;;;;;;;;;;12976211;22;20699;-86
2023/10/09 20:16:26;;;;;;;36.30;18.73;;;;;;;;;;12970934;22;20371;-86
2023/10/09 20:21:28;;;;;;;36.03;18.90;;;;;;;;;;12969293;22;21008;-87
2023/10/09 20:26:32;;;;;;;39.05;19.73;;;;;;;;;;12970149;22;20379;-87
2023/10/09 20:31:35;;;;;;;36.93;20.17;;;;;;;;;;12970002;22;20452;-86
2023/10/09 20:36:41;;;;;;;40.05;20.95;;;;;;;;;;12967593;22;20440;-86
2023/10/09 20:41:45;;;;;;;43.55;22.90;;;;;;;;;;12964996;22;20390;-85
2023/10/09 20:46:48;;;;;;;44.50;22.65;;;;;;;;;;12958405;22;20371;-86
2023/10/09 20:51:52;;;;;;;39.58;20.88;;;;;;;;;;12962142;22;20445;-87
2023/10/09 20:56:56;;;;;;;34.85;20.23;;;;;;;;;;12964544;22;20516;-86
2023/10/09 21:02:00;;;;;;;33.75;19.67;;;;;;;;;;12965042;22;20382;-87
2023/10/09 21:07:03;;;;;;;39.25;19.05;;;;;;;;;;12963657;22;20440;-86
2023/10/09 21:12:07;;;;;;;31.65;18.77;;;;;;;;;;12968004;22;20358;-87
2023/10/09 21:17:10;;;;;;;32.97;17.70;;;;;;;;;;12971660;22;20555;-87
2023/10/09 21:22:12;;;;;;;31.17;17.15;;;;;;;;;;12968774;22;20502;-87
2023/10/09 21:27:16;;;;;;;29.23;17.27;;;;;;;;;;12970127;22;20397;-86
2023/10/09 21:32:19;;;;;;;27.40;15.90;;;;;;;;;;12973229;22;20358;-85
2023/10/09 21:37:21;;;;;;;28.73;16.17;;;;;;;;;;12974663;22;20370;-87
2023/10/09 21:42:25;;;;;;;28.08;15.93;;;;;;;;;;12973608;22;20367;-87
2023/10/09 21:47:27;;;;;;;26.60;13.98;;;;;;;;;;12975521;22;20367;-86
2023/10/09 21:52:30;;;;;;;21.37;14.07;;;;;;;;;;12974666;22;20363;-86
2023/10/09 21:57:34;;;;;;;23.55;14.13;;;;;;;;;;12975500;22;20468;-85
2023/10/09 22:02:37;;;;;;;30.38;14.70;;;;;;;;;;12975329;22;20924;-86
2023/10/09 22:07:42;;;;;;;24.05;14.57;;;;;;;;;;12973893;22;20393;-85
2023/10/09 22:12:46;;;;;;;20.63;13.35;;;;;;;;;;12976967;22;20366;-86
2023/10/09 22:17:49;;;;;;;21.50;13.77;;;;;;;;;;12985823;22;20379;-86
2023/10/09 22:22:56;;;;;;;20.80;13.05;;;;;;;;;;12975876;22;20367;-87
2023/10/09 22:28:03;;;;;;;23.60;13.30;;;;;;;;;;12976835;22;20362;-86
2023/10/09 22:33:12;;;;;;;20.58;12.85;;;;;;;;;;12999484;22;20351;-86
2023/10/09 22:38:15;;;;;;;19.98;12.93;;;;;;;;;;12977776;22;20873;-86
2023/10/09 22:43:23;;;;;;;20.95;12.45;;;;;;;;;;12974049;22;20447;-86
2023/10/09 22:48:27;;;;;;;23.38;13.07;;;;;;;;;;12973976;22;20622;-86
2023/10/09 22:53:37;;;;;;;23.65;12.20;;;;;;;;;;12974389;22;20449;-87
2023/10/09 22:58:51;;;;;;;22.48;12.27;;;;;;;;;;12975387;22;20432;-86
2023/10/09 23:04:15;;;;;;;18.90;11.23;;;;;;;;;;12976028;22;20737;-86
2023/10/09 23:09:30;;;;;;;17.67;12.15;;;;;;;;;;12977221;22;20362;-86
2023/10/09 23:14:33;;;;;;;21.87;12.50;;;;;;;;;;12982018;22;20359;-86
2023/10/09 23:19:44;;;;;;;21.30;11.45;;;;;;;;;;12980718;22;20438;-86
2023/10/09 23:24:53;;;;;;;21.10;11.70;;;;;;;;;;12980154;22;20366;-86
2023/10/09 23:30:05;;;;;;;17.45;11.30;;;;;;;;;;12980751;22;20366;-86
2023/10/09 23:35:09;;;;;;;21.00;11.73;;;;;;;;;;12980143;22;20355;-85
2023/10/09 23:40:16;;;;;;;21.70;11.77;;;;;;;;;;12979649;22;20862;-85
2023/10/09 23:45:20;;;;;;;22.03;12.33;;;;;;;;;;12983411;22;20358;-86
2023/10/09 23:50:24;;;;;;;23.40;11.73;;;;;;;;;;12979897;22;20371;-86
2023/10/09 23:55:31;;;;;;;21.93;11.97;;;;;;;;;;12980231;22;20429;-86
